Time;durP1;ratioP1;P1;durP2;ratioP2;P2;SDS_P1;SDS_P2;PMS_P1;PMS_P2;Temp;Humidity;BMP_temperature;BMP_pressure;BME280_temperature;BME280_humidity;BME280_pressure;Samples;Min_cycle;Max_cycle;Signal;HPM_P1;HPM_P2
2021/08/11 00:01:00;;;;;;;7.67;6.40;;;16.70;99.90;;;;;;5046730;28;20288;-48
2021/08/11 00:03:27;;;;;;;8.67;6.63;;;16.70;99.90;;;;;;5047617;28;20313;-48
2021/08/11 00:05:54;;;;;;;8.63;5.93;;;16.60;99.90;;;;;;5045284;28;20239;-48
2021/08/11 00:08:21;;;;;;;9.20;6.53;;;16.60;99.90;;;;;;5046262;28;20295;-48
2021/08/11 00:10:48;;;;;;;8.37;6.67;;;16.60;99.90;;;;;;5045449;28;20236;-49
2021/08/11 00:13:14;;;;;;;8.23;6.47;;;16.60;99.90;;;;;;5046771;28;20368;-49
2021/08/11 00:15:41;;;;;;;9.03;6.57;;;16.60;99.90;;;;;;5046223;28;20253;-50
2021/08/11 00:18:08;;;;;;;9.73;6.67;;;16.60;99.90;;;;;;5046792;28;20205;-49
2021/08/11 00:20:35;;;;;;;10.37;7.33;;;16.60;99.90;;;;;;5045502;28;20297;-49
2021/08/11 00:23:02;;;;;;;7.67;6.73;;;16.60;99.90;;;;;;5047024;28;20232;-49
2021/08/11 00:25:29;;;;;;;7.97;6.77;;;16.60;99.90;;;;;;5046795;28;20691;-48
2021/08/11 00:27:56;;;;;;;7.50;6.47;;;16.50;99.90;;;;;;5047920;28;20682;-49
2021/08/11 00:30:23;;;;;;;11.03;8.03;;;16.10;99.90;;;;;;5046359;28;20258;-49
2021/08/11 00:32:50;;;;;;;10.93;7.50;;;16.10;99.90;;;;;;5047295;28;20283;-49
2021/08/11 00:35:17;;;;;;;9.93;7.60;;;16.00;99.90;;;;;;5045369;28;20247;-49
2021/08/11 00:37:44;;;;;;;9.97;7.40;;;16.00;99.90;;;;;;5047971;28;20209;-48
2021/08/11 00:40:14;;;;;;;9.67;7.30;;;15.90;99.90;;;;;;5045451;28;20652;-49
2021/08/11 00:42:41;;;;;;;8.97;7.23;;;15.90;99.90;;;;;;5046635;28;20312;-48
2021/08/11 00:45:08;;;;;;;9.87;7.30;;;16.00;99.90;;;;;;5044868;28;20304;-49
2021/08/11 00:47:36;;;;;;;11.53;7.90;;;15.90;99.90;;;;;;5045900;28;20302;-48
2021/08/11 00:50:07;;;;;;;9.57;6.30;;;16.00;99.90;;;;;;5044066;28;20274;-49
2021/08/11 00:52:34;;;;;;;11.77;6.97;;;16.00;99.90;;;;;;5045234;28;20636;-49
2021/08/11 00:55:01;;;;;;;9.13;7.27;;;16.10;99.90;;;;;;5043547;28;20326;-49
2021/08/11 00:57:30;;;;;;;9.13;7.00;;;16.20;99.90;;;;;;5045273;28;20727;-49
2021/08/11 00:59:58;;;;;;;9.83;7.63;;;16.20;99.90;;;;;;5044958;28;20335;-49
2021/08/11 01:02:26;;;;;;;12.27;7.43;;;16.20;99.90;;;;;;5043767;28;20276;-49
2021/08/11 01:04:58;;;;;;;11.70;7.70;;;16.20;99.90;;;;;;5045249;28;20268;-48
2021/08/11 01:07:29;;;;;;;9.57;7.53;;;16.20;99.90;;;;;;5044050;28;20244;-48
2021/08/11 01:09:57;;;;;;;9.67;7.60;;;15.90;99.90;;;;;;5045477;28;20212;-48
2021/08/11 01:12:25;;;;;;;10.30;8.20;;;15.90;99.90;;;;;;5044630;28;20212;-48
2021/08/11 01:14:52;;;;;;;9.20;7.80;;;16.10;99.90;;;;;;5045197;28;20712;-48
2021/08/11 01:17:24;;;;;;;12.77;7.77;;;16.10;99.90;;;;;;5044472;28;20365;-48
2021/08/11 01:19:51;;;;;;;9.43;7.73;;;16.00;99.90;;;;;;5045229;28;20238;-49
2021/08/11 01:22:33;;;;;;;10.90;8.37;;;16.20;99.90;;;;;;5044991;28;20241;-48
2021/08/11 01:25:06;;;;;;;10.20;8.17;;;16.20;99.90;;;;;;5044614;28;20244;-48
2021/08/11 01:27:48;;;;;;;12.70;8.57;;;16.10;99.90;;;;;;5046071;28;20305;-48
2021/08/11 01:30:38;;;;;;;10.37;8.10;;;15.90;99.90;;;;;;5045805;28;20285;-48
2021/08/11 01:33:27;;;;;;;11.03;8.10;;;15.90;99.90;;;;;;5044778;28;20315;-49
2021/08/11 01:35:59;;;;;;;10.30;7.77;;;15.70;99.90;;;;;;5045118;28;20220;-49
2021/08/11 01:38:32;;;;;;;10.77;8.30;;;15.80;99.90;;;;;;5045445;28;20287;-49
2021/08/11 01:41:03;;;;;;;12.67;8.73;;;15.90;99.90;;;;;;5044858;28;20228;-49
2021/08/11 01:43:37;;;;;;;11.37;8.77;;;16.00;99.90;;;;;;5043681;28;20671;-48
2021/08/11 01:46:07;;;;;;;10.80;8.60;;;16.00;99.90;;;;;;5045314;28;20238;-49
2021/08/11 01:48:38;;;;;;;12.37;8.97;;;16.10;99.90;;;;;;5044624;28;20291;-49
2021/08/11 01:51:07;;;;;;;10.17;8.53;;;16.10;99.90;;;;;;5044996;28;20239;-48
2021/08/11 01:53:34;;;;;;;12.53;8.77;;;16.10;99.90;;;;;;5043596;28;20252;-49
2021/08/11 01:56:01;;;;;;;12.03;8.73;;;16.10;99.90;;;;;;5043720;28;20299;-49
2021/08/11 01:58:29;;;;;;;13.50;10.17;;;16.00;99.90;;;;;;5045374;28;20235;-49
2021/08/11 02:01:00;;;;;;;11.10;8.93;;;16.10;99.90;;;;;;5044902;28;20254;-48
2021/08/11 02:03:27;;;;;;;9.57;8.40;;;16.10;99.90;;;;;;5046156;28;20204;-49
2021/08/11 02:05:55;;;;;;;11.47;8.60;;;16.10;99.90;;;;;;5043962;28;20520;-49
2021/08/11 02:08:24;;;;;;;10.90;8.60;;;16.10;99.90;;;;;;5045282;28;20305;-49
2021/08/11 02:10:53;;;;;;;12.47;9.10;;;16.10;99.90;;;;;;5044277;28;20240;-49
2021/08/11 02:13:20;;;;;;;11.37;8.73;;;15.90;99.90;;;;;;5045165;28;20227;-49
2021/08/11 02:15:49;;;;;;;11.20;8.93;;;16.00;99.90;;;;;;5045764;28;20276;-49
2021/08/11 02:18:16;;;;;;;11.37;8.53;;;16.00;99.90;;;;;;5045680;28;20200;-49
2021/08/11 02:20:44;;;;;;;12.00;9.10;;;15.90;99.90;;;;;;5044611;28;20211;-49
2021/08/11 02:23:11;;;;;;;12.30;8.77;;;15.90;99.90;;;;;;5049747;28;20269;-49
2021/08/11 02:25:54;;;;;;;10.60;8.10;;;15.90;99.90;;;;;;5048729;28;20292;-49
2021/08/11 02:28:34;;;;;;;11.77;8.30;;;15.90;99.90;;;;;;5049036;28;20248;-49
2021/08/11 02:31:12;;;;;;;11.33;8.57;;;15.90;99.90;;;;;;5049315;28;20619;-49
2021/08/11 02:33:46;;;;;;;8.90;7.23;;;15.90;99.90;;;;;;5047989;28;20205;-48
2021/08/11 02:36:35;;;;;;;8.73;7.70;;;15.90;99.90;;;;;;5049260;28;20223;-49
2021/08/11 02:39:09;;;;;;;10.40;7.40;;;15.90;99.90;;;;;;5048699;28;20276;-49
2021/08/11 02:41:42;;;;;;;8.53;7.00;;;15.80;99.90;;;;;;5048192;28;20593;-49
2021/08/11 02:44:16;;;;;;;12.83;7.57;;;15.80;99.90;;;;;;5047497;28;20928;-49
2021/08/11 02:46:44;;;;;;;10.13;7.43;;;15.80;99.90;;;;;;5048405;28;20258;-49
2021/08/11 02:49:21;;;;;;;8.80;7.33;;;15.80;99.90;;;;;;5047893;28;20298;-49
2021/08/11 02:51:48;;;;;;;11.37;7.53;;;15.80;99.90;;;;;;5047561;28;20350;-49
2021/08/11 02:54:18;;;;;;;10.30;7.70;;;15.80;99.90;;;;;;5046727;28;20591;-49
2021/08/11 02:56:47;;;;;;;8.63;7.00;;;15.80;99.90;;;;;;5047782;28;20279;-49
2021/08/11 02:59:15;;;;;;;9.10;7.23;;;15.70;99.90;;;;;;5047947;28;20253;-49
2021/08/11 03:01:42;;;;;;;10.27;7.53;;;15.50;99.90;;;;;;5048747;28;20368;-49
2021/08/11 03:04:13;;;;;;;8.00;6.97;;;15.60;99.90;;;;;;5047647;28;20228;-49
2021/08/11 03:06:40;;;;;;;9.97;8.17;;;15.60;99.90;;;;;;5048765;28;20578;-49
2021/08/11 03:09:08;;;;;;;10.33;7.87;;;15.60;99.90;;;;;;5047354;28;20294;-48
2021/08/11 03:11:36;;;;;;;11.93;7.20;;;15.60;99.90;;;;;;5048642;28;20297;-48
2021/08/11 03:14:05;;;;;;;8.97;6.83;;;15.70;99.90;;;;;;5046644;28;20234;-49
2021/08/11 03:16:39;;;;;;;12.27;7.23;;;15.70;99.90;;;;;;5048653;28;20235;-48
2021/08/11 03:19:07;;;;;;;10.33;7.13;;;15.70;99.90;;;;;;5047268;28;20275;-49
2021/08/11 03:21:36;;;;;;;8.87;7.10;;;15.50;99.90;;;;;;5048038;28;20271;-49
2021/08/11 03:24:03;;;;;;;10.57;7.57;;;15.50;99.90;;;;;;5046871;28;20222;-49
2021/08/11 03:26:30;;;;;;;9.50;6.63;;;15.50;99.90;;;;;;5048183;28;20241;-49
2021/08/11 03:29:01;;;;;;;8.47;6.80;;;15.40;99.90;;;;;;5046964;28;20205;-49
2021/08/11 03:31:28;;;;;;;9.37;7.27;;;15.50;99.90;;;;;;5046694;28;20286;-49
2021/08/11 03:33:56;;;;;;;9.87;7.00;;;15.50;99.90;;;;;;5047785;28;20507;-49
2021/08/11 03:36:23;;;;;;;9.43;7.13;;;15.60;99.90;;;;;;5047272;28;20308;-49
2021/08/11 03:38:49;;;;;;;9.30;6.80;;;15.60;99.90;;;;;;5047453;28;20701;-49
2021/08/11 03:41:16;;;;;;;8.57;6.60;;;15.50;99.90;;;;;;5046789;28;20294;-49
2021/08/11 03:43:43;;;;;;;9.43;7.17;;;15.50;99.90;;;;;;5045600;28;20334;-49
2021/08/11 03:46:10;;;;;;;10.03;6.60;;;15.50;99.90;;;;;;5047506;28;20673;-49
2021/08/11 03:48:37;;;;;;;7.80;6.00;;;15.50;99.90;;;;;;5047852;28;20711;-49
2021/08/11 03:51:04;;;;;;;9.10;6.43;;;15.50;99.90;;;;;;5047558;28;21901;-49
2021/08/11 03:53:30;;;;;;;6.93;5.90;;;15.20;99.90;;;;;;5046549;28;20240;-49
2021/08/11 03:55:57;;;;;;;7.63;6.20;;;15.40;99.90;;;;;;5047047;28;20316;-49
2021/08/11 03:58:24;;;;;;;9.43;6.47;;;15.40;99.90;;;;;;5047530;28;20736;-49
2021/08/11 04:00:51;;;;;;;9.20;6.20;;;15.40;99.90;;;;;;5046080;28;20324;-49
2021/08/11 04:03:18;;;;;;;11.80;6.80;;;15.40;99.90;;;;;;5047077;28;20205;-49
2021/08/11 04:05:45;;;;;;;11.10;6.53;;;15.20;99.90;;;;;;5045987;28;20213;-49
2021/08/11 04:08:12;;;;;;;8.37;6.10;;;15.20;99.90;;;;;;5047878;28;20294;-49
2021/08/11 04:10:39;;;;;;;8.57;6.67;;;15.20;99.90;;;;;;5045675;28;20274;-49
2021/08/11 04:13:06;;;;;;;7.50;6.70;;;15.10;99.90;;;;;;5046760;28;20263;-49
2021/08/11 04:15:32;;;;;;;9.77;6.60;;;15.10;99.90;;;;;;5046370;28;20702;-49
2021/08/11 04:17:59;;;;;;;9.87;7.47;;;15.10;99.90;;;;;;5047859;28;20584;-49
2021/08/11 04:20:26;;;;;;;7.33;6.10;;;15.10;99.90;;;;;;5046767;28;20623;-49
2021/08/11 04:22:53;;;;;;;7.70;6.33;;;15.20;99.90;;;;;;5047378;28;20651;-49
2021/08/11 04:25:20;;;;;;;8.63;6.10;;;15.30;99.90;;;;;;5047061;28;20641;-49
2021/08/11 04:27:47;;;;;;;9.27;6.97;;;15.40;99.90;;;;;;5047859;28;20295;-49
2021/08/11 04:30:14;;;;;;;7.30;5.93;;;15.40;99.90;;;;;;5046765;28;20291;-49
2021/08/11 04:32:40;;;;;;;8.13;5.70;;;15.50;99.90;;;;;;5048274;28;20286;-49
2021/08/11 04:35:08;;;;;;;7.77;5.87;;;15.40;99.90;;;;;;5046305;28;20362;-49
2021/08/11 04:37:36;;;;;;;8.80;6.37;;;15.20;99.90;;;;;;5047390;28;20259;-49
2021/08/11 04:40:05;;;;;;;8.13;5.90;;;15.30;99.90;;;;;;5046035;28;20288;-49
2021/08/11 04:42:33;;;;;;;8.23;6.00;;;15.20;99.90;;;;;;5046925;28;20243;-48
2021/08/11 04:45:00;;;;;;;8.47;6.57;;;15.40;99.90;;;;;;5043472;28;20232;-48
2021/08/11 04:47:27;;;;;;;10.17;6.87;;;15.30;99.90;;;;;;5046919;28;20712;-49
2021/08/11 04:49:54;;;;;;;8.07;5.90;;;15.30;99.90;;;;;;5045902;28;20227;-49
2021/08/11 04:52:20;;;;;;;8.07;6.53;;;15.30;99.90;;;;;;5046875;28;20244;-49
2021/08/11 04:54:47;;;;;;;9.83;6.63;;;15.20;99.90;;;;;;5043946;28;20262;-48
2021/08/11 04:57:14;;;;;;;8.47;6.33;;;15.20;99.90;;;;;;5046684;28;20228;-49
2021/08/11 04:59:41;;;;;;;7.70;6.27;;;15.30;99.90;;;;;;5045038;28;20240;-49
2021/08/11 05:02:08;;;;;;;7.80;6.30;;;15.30;99.90;;;;;;5046562;28;20258;-48
2021/08/11 05:04:35;;;;;;;6.17;5.40;;;15.50;99.90;;;;;;5044761;28;20201;-49
2021/08/11 05:07:03;;;;;;;8.43;6.70;;;15.50;99.90;;;;;;5046030;28;20244;-49
2021/08/11 05:09:32;;;;;;;8.23;6.50;;;15.50;99.90;;;;;;5045449;28;20299;-49
2021/08/11 05:11:59;;;;;;;9.07;6.53;;;15.50;99.90;;;;;;5047370;28;20243;-49
2021/08/11 05:14:26;;;;;;;7.33;6.20;;;15.50;99.90;;;;;;5046163;28;20246;-49
2021/08/11 05:16:53;;;;;;;7.33;5.60;;;15.50;99.90;;;;;;5045586;28;20230;-49
2021/08/11 05:19:20;;;;;;;9.00;6.40;;;15.40;99.90;;;;;;5045628;28;20288;-49
2021/08/11 05:21:46;;;;;;;9.03;6.57;;;15.30;99.90;;;;;;5045567;28;20632;-49
2021/08/11 05:24:14;;;;;;;7.03;5.90;;;15.20;99.90;;;;;;5045112;28;20243;-49
2021/08/11 05:26:41;;;;;;;9.53;5.90;;;15.30;99.90;;;;;;5045075;28;20300;-48
2021/08/11 05:29:08;;;;;;;7.77;6.40;;;15.20;99.90;;;;;;5045917;28;20297;-48
2021/08/11 05:31:35;;;;;;;9.40;7.07;;;15.20;99.90;;;;;;5044751;28;20233;-49
2021/08/11 05:34:01;;;;;;;7.47;5.80;;;15.20;99.90;;;;;;5045949;28;20538;-49
2021/08/11 05:36:28;;;;;;;8.43;6.27;;;15.20;99.90;;;;;;5044456;28;20305;-49
2021/08/11 05:38:55;;;;;;;10.97;6.53;;;15.20;99.90;;;;;;5044608;28;20237;-49
2021/08/11 05:41:22;;;;;;;8.10;6.10;;;15.10;99.90;;;;;;5044324;28;20680;-49
2021/08/11 05:43:48;;;;;;;8.70;6.37;;;15.10;99.90;;;;;;5043955;28;20628;-49
2021/08/11 05:46:15;;;;;;;9.83;5.97;;;15.30;99.90;;;;;;5044704;28;20292;-49
2021/08/11 05:48:42;;;;;;;7.33;6.30;;;15.50;99.90;;;;;;5045729;28;20629;-49
2021/08/11 05:51:09;;;;;;;9.63;7.37;;;15.50;99.90;;;;;;5045209;28;20720;-49
2021/08/11 05:53:36;;;;;;;8.20;5.93;;;15.50;99.90;;;;;;5044927;28;20626;-49
2021/08/11 05:56:03;;;;;;;8.70;6.77;;;15.50;99.90;;;;;;5046985;28;20223;-49
2021/08/11 05:58:29;;;;;;;8.23;6.23;;;15.50;99.90;;;;;;5049111;28;20303;-49
2021/08/11 06:00:56;;;;;;;8.27;6.87;;;15.50;99.90;;;;;;5044472;28;20295;-49
2021/08/11 06:03:23;;;;;;;9.47;6.33;;;15.50;99.90;;;;;;5049194;28;20208;-48
2021/08/11 06:05:50;;;;;;;10.07;7.00;;;15.60;99.90;;;;;;5048383;28;20219;-49
2021/08/11 06:08:17;;;;;;;8.67;7.03;;;15.60;99.90;;;;;;5048847;28;20246;-49
2021/08/11 06:10:44;;;;;;;10.43;7.17;;;15.70;99.90;;;;;;5049008;28;20301;-49
2021/08/11 06:13:11;;;;;;;10.80;7.60;;;15.80;99.90;;;;;;5049398;28;20656;-48
2021/08/11 06:15:37;;;;;;;8.87;6.83;;;15.90;99.90;;;;;;5048276;28;20296;-49
2021/08/11 06:18:04;;;;;;;9.70;7.13;;;15.90;99.90;;;;;;5048663;28;20208;-49
2021/08/11 06:20:31;;;;;;;9.33;7.23;;;15.90;99.90;;;;;;5047530;28;20246;-49
2021/08/11 06:22:58;;;;;;;8.67;7.00;;;16.10;99.90;;;;;;5049081;28;20307;-49
2021/08/11 06:25:25;;;;;;;8.83;6.73;;;16.20;99.90;;;;;;5048002;28;20235;-49
2021/08/11 06:27:51;;;;;;;10.67;7.80;;;16.20;99.90;;;;;;5048991;28;20244;-49
2021/08/11 06:30:18;;;;;;;11.97;7.27;;;16.30;99.90;;;;;;5048940;28;20701;-49
2021/08/11 06:32:45;;;;;;;10.37;7.03;;;16.20;99.90;;;;;;5049536;28;20264;-48
2021/08/11 06:35:12;;;;;;;10.73;7.80;;;16.30;99.90;;;;;;5047344;28;20233;-49
2021/08/11 06:37:47;;;;;;;10.43;7.90;;;16.40;99.90;;;;;;5049614;28;20266;-49
2021/08/11 06:40:16;;;;;;;14.67;7.23;;;16.40;99.90;;;;;;5047341;28;20234;-49
2021/08/11 06:42:43;;;;;;;11.80;7.50;;;16.60;99.90;;;;;;5040897;28;20289;-49
2021/08/11 06:45:11;;;;;;;10.80;7.93;;;16.60;99.90;;;;;;5046722;28;20286;-49
2021/08/11 06:47:37;;;;;;;13.47;7.67;;;16.60;99.90;;;;;;5048577;28;20297;-49
2021/08/11 06:50:06;;;;;;;10.97;7.17;;;16.70;99.90;;;;;;5046995;28;20252;-49
2021/08/11 06:52:33;;;;;;;10.40;7.57;;;16.90;99.90;;;;;;5047885;28;20302;-49
2021/08/11 06:55:09;;;;;;;11.27;8.03;;;16.90;99.90;;;;;;5046424;28;20212;-49
2021/08/11 06:57:36;;;;;;;8.07;6.80;;;17.10;99.90;;;;;;5040127;28;20260;-49
2021/08/11 07:00:05;;;;;;;14.17;7.20;;;17.40;99.90;;;;;;5048671;28;20231;-49
2021/08/11 07:02:31;;;;;;;15.23;7.80;;;17.40;99.90;;;;;;5047656;28;20203;-49
2021/08/11 07:04:58;;;;;;;10.10;6.63;;;17.70;99.90;;;;;;5047858;28;20202;-49
2021/08/11 07:07:25;;;;;;;9.47;7.10;;;17.90;99.90;;;;;;5047073;28;20307;-48
2021/08/11 07:09:54;;;;;;;9.70;7.50;;;18.00;99.90;;;;;;5048765;28;20240;-49
2021/08/11 07:12:21;;;;;;;8.53;7.37;;;18.20;99.90;;;;;;5047444;28;20288;-49
2021/08/11 07:14:48;;;;;;;13.03;7.47;;;18.10;99.90;;;;;;5047741;28;20669;-49
2021/08/11 07:17:15;;;;;;;9.90;7.00;;;18.40;99.90;;;;;;5046877;28;20209;-49
2021/08/11 07:19:42;;;;;;;12.87;7.30;;;18.60;99.90;;;;;;5047850;28;20238;-48
2021/08/11 07:22:10;;;;;;;8.27;6.70;;;18.60;99.90;;;;;;5046993;28;20361;-48
2021/08/11 07:24:37;;;;;;;10.33;7.60;;;18.70;99.90;;;;;;5048585;28;20572;-49
2021/08/11 07:27:05;;;;;;;11.40;7.13;;;18.90;99.90;;;;;;5047672;28;20246;-49
2021/08/11 07:29:32;;;;;;;11.13;7.53;;;19.10;99.90;;;;;;5049032;28;20242;-49
2021/08/11 07:31:59;;;;;;;9.20;7.20;;;19.00;99.90;;;;;;5047406;28;20272;-48
2021/08/11 07:34:25;;;;;;;11.10;7.17;;;19.10;99.90;;;;;;5048392;28;20525;-49
2021/08/11 07:36:52;;;;;;;11.93;6.77;;;19.10;99.90;;;;;;5047956;28;20760;-49
2021/08/11 07:39:19;;;;;;;9.17;6.03;;;19.40;99.90;;;;;;5047898;28;20243;-49
2021/08/11 07:41:46;;;;;;;8.67;6.87;;;19.60;99.90;;;;;;5046505;28;20216;-50
2021/08/11 07:44:13;;;;;;;9.77;7.07;;;19.30;99.90;;;;;;5046636;28;20203;-49
2021/08/11 07:46:39;;;;;;;9.27;7.10;;;19.20;99.90;;;;;;5046970;28;20634;-47
2021/08/11 07:49:06;;;;;;;9.90;6.90;;;19.20;99.90;;;;;;5046555;28;20485;-49
2021/08/11 07:51:33;;;;;;;9.13;7.00;;;19.30;99.90;;;;;;5046819;28;20290;-49
2021/08/11 07:54:00;;;;;;;9.33;6.53;;;19.40;99.90;;;;;;5047047;28;20206;-47
2021/08/11 07:56:27;;;;;;;8.47;6.40;;;19.50;99.90;;;;;;5046647;28;20319;-49
2021/08/11 07:58:54;;;;;;;10.90;6.53;;;19.90;99.90;;;;;;5046885;28;20253;-48
2021/08/11 08:01:20;;;;;;;8.90;6.03;;;19.80;99.90;;;;;;5046324;28;20286;-48
2021/08/11 08:03:48;;;;;;;9.87;5.63;;;20.00;99.90;;;;;;5046172;28;20639;-49
2021/08/11 08:06:16;;;;;;;10.77;6.50;;;20.00;99.90;;;;;;5046187;28;20211;-48
2021/08/11 08:08:42;;;;;;;9.00;6.20;;;19.80;99.90;;;;;;5047213;28;20243;-48
2021/08/11 08:11:09;;;;;;;10.77;6.10;;;20.00;99.90;;;;;;5047097;28;20227;-48
2021/08/11 08:13:36;;;;;;;9.90;7.23;;;19.90;99.90;;;;;;5045740;28;20659;-48
2021/08/11 08:16:03;;;;;;;9.97;5.80;;;20.00;99.90;;;;;;5046478;28;20201;-48
2021/08/11 08:18:30;;;;;;;9.07;5.47;;;19.80;99.90;;;;;;5045712;28;20209;-48
2021/08/11 08:20:57;;;;;;;6.87;5.30;;;19.90;99.90;;;;;;5046275;28;20200;-47
2021/08/11 08:23:25;;;;;;;6.87;5.00;;;20.20;99.90;;;;;;5046561;28;20403;-47
2021/08/11 08:25:52;;;;;;;9.50;5.53;;;20.40;99.90;;;;;;5046839;28;20523;-48
2021/08/11 08:28:18;;;;;;;9.93;4.97;;;20.60;99.90;;;;;;5046817;28;20215;-47
2021/08/11 08:30:46;;;;;;;8.97;5.33;;;20.50;56.10;;;;;;5046843;28;20208;-50
2021/08/11 08:33:14;;;;;;;9.10;4.93;;;20.50;42.30;;;;;;5047058;28;20210;-47
2021/08/11 08:35:41;;;;;;;9.63;4.80;;;20.80;29.80;;;;;;5046536;28;20988;-48
2021/08/11 08:38:08;;;;;;;8.77;5.40;;;20.80;1.00;;;;;;5046504;28;20289;-48
2021/08/11 08:40:44;;;;;;;7.07;5.17;;;21.00;60.20;;;;;;5055812;27;20597;-50
2021/08/11 08:43:10;;;;;;;7.20;5.27;;;21.10;1.00;;;;;;5043590;28;20211;-49
2021/08/11 08:45:38;;;;;;;9.40;5.07;;;21.10;1.00;;;;;;5043481;28;20236;-49
2021/08/11 08:48:06;;;;;;;8.83;5.67;;;20.90;1.00;;;;;;5043399;28;20653;-49
2021/08/11 08:50:34;;;;;;;6.53;4.90;;;20.80;1.00;;;;;;5043591;28;20538;-49
2021/08/11 08:53:03;;;;;;;8.63;4.97;;;20.90;1.00;;;;;;5042773;28;20204;-49
2021/08/11 08:55:32;;;;;;;7.07;4.90;;;21.20;1.00;;;;;;5043830;28;20303;-49
2021/08/11 08:57:59;;;;;;;7.47;5.70;;;21.30;1.00;;;;;;5043198;28;20254;-49
2021/08/11 09:00:25;;;;;;;8.90;5.20;;;21.40;1.00;;;;;;5043416;28;20314;-49
2021/08/11 09:02:52;;;;;;;6.83;4.47;;;21.30;1.00;;;;;;5042456;28;20542;-50
2021/08/11 09:05:20;;;;;;;6.53;4.80;;;21.70;1.00;;;;;;5043111;28;20218;-49
2021/08/11 09:07:48;;;;;;;8.57;5.13;;;21.70;99.90;;;;;;5043716;28;20242;-49
2021/08/11 09:10:39;;;;;;;6.17;4.53;;;21.90;99.90;;;;;;5043880;28;20220;-49
2021/08/11 09:13:19;;;;;;;4.20;3.40;;;22.00;1.00;;;;;;5044102;28;20207;-50
2021/08/11 09:15:48;;;;;;;5.93;3.83;;;22.00;1.00;;;;;;5043628;28;20232;-49
2021/08/11 09:18:20;;;;;;;7.10;3.40;;;22.00;1.00;;;;;;5044039;28;20211;-50
2021/08/11 09:21:12;;;;;;;6.30;3.73;;;22.10;99.90;;;;;;5043132;28;20314;-50
2021/08/11 09:23:43;;;;;;;6.00;4.03;;;22.20;1.00;;;;;;5043450;28;20263;-49
2021/08/11 09:26:13;;;;;;;4.37;3.03;;;22.20;1.00;;;;;;5043597;28;20683;-49
2021/08/11 09:28:43;;;;;;;6.50;2.43;;;22.20;99.90;;;;;;5043385;28;20228;-49
2021/08/11 09:31:24;;;;;;;6.17;2.73;;;22.20;1.00;;;;;;5040616;28;20252;-50
2021/08/11 09:33:53;;;;;;;2.90;2.30;;;22.20;1.00;;;;;;5023896;28;20578;-49
2021/08/11 09:36:20;;;;;;;2.87;2.30;;;22.10;99.90;;;;;;5023854;28;20201;-49
2021/08/11 09:39:04;;;;;;;2.93;2.20;;;22.10;1.00;;;;;;5023599;28;20337;-49
2021/08/11 09:41:34;;;;;;;3.53;2.27;;;22.60;33.80;;;;;;5023930;28;20232;-49
2021/08/11 09:44:11;;;;;;;3.23;2.00;;;22.70;99.90;;;;;;5023586;28;20197;-50
2021/08/11 09:46:39;;;;;;;4.23;2.10;;;22.70;1.00;;;;;;5024277;28;20226;-50
2021/08/11 09:49:18;;;;;;;3.73;2.40;;;22.30;1.00;;;;;;5022943;28;20226;-49
2021/08/11 09:51:58;;;;;;;2.20;1.60;;;22.30;99.90;;;;;;5027285;28;20649;-49
2021/08/11 09:54:27;;;;;;;2.43;1.80;;;22.00;1.00;;;;;;5010623;28;20221;-50
2021/08/11 09:56:54;;;;;;;2.13;1.60;;;22.00;1.00;;;;;;5010574;28;20283;-48
2021/08/11 09:59:21;;;;;;;3.70;1.93;;;22.20;99.90;;;;;;5009741;28;20253;-48
2021/08/11 10:01:48;;;;;;;1.83;1.70;;;22.20;65.80;;;;;;5010666;28;20675;-48
2021/08/11 10:04:15;;;;;;;2.17;1.57;;;22.20;1.00;;;;;;5010090;28;20208;-49
2021/08/11 10:06:43;;;;;;;3.50;1.73;;;22.40;1.00;;;;;;5011176;28;20292;-48
2021/08/11 10:09:17;;;;;;;2.10;1.80;;;22.60;1.00;;;;;;5010115;28;20240;-48
2021/08/11 10:11:52;;;;;;;1.60;1.17;;;22.70;1.00;;;;;;5010097;28;20210;-48
2021/08/11 10:14:21;;;;;;;2.33;1.30;;;22.50;1.00;;;;;;5010460;28;20258;-48
2021/08/11 10:16:50;;;;;;;1.73;1.37;;;22.20;1.00;;;;;;5009951;28;20235;-48
2021/08/11 10:19:19;;;;;;;2.37;1.77;;;22.00;1.00;;;;;;5009408;28;20644;-48
2021/08/11 10:21:49;;;;;;;3.77;1.90;;;21.70;1.00;;;;;;5010118;28;20629;-49
2021/08/11 10:24:16;;;;;;;2.27;1.77;;;22.00;1.00;;;;;;5010829;28;20209;-48
2021/08/11 10:26:47;;;;;;;1.83;1.40;;;21.90;1.00;;;;;;5010454;28;20291;-48
2021/08/11 10:29:14;;;;;;;2.57;1.60;;;21.90;1.00;;;;;;5017071;28;20602;-48
2021/08/11 10:31:42;;;;;;;2.20;1.47;;;22.00;1.00;;;;;;5009842;28;20241;-48
2021/08/11 10:34:12;;;;;;;2.47;2.17;;;22.30;1.00;;;;;;5009622;28;20311;-48
2021/08/11 10:36:43;;;;;;;3.87;1.90;;;22.40;99.90;;;;;;5010431;28;20649;-48
2021/08/11 10:39:10;;;;;;;1.83;1.60;;;22.30;1.00;;;;;;5008744;28;20421;-48
2021/08/11 10:41:38;;;;;;;2.57;2.10;;;21.80;64.70;;;;;;5009286;28;20235;-49
2021/08/11 10:44:14;;;;;;;2.87;1.97;;;22.00;1.00;;;;;;5008635;28;20253;-48
2021/08/11 10:46:43;;;;;;;2.87;2.00;;;22.30;1.00;;;;;;5009286;28;20320;-48
2021/08/11 10:49:16;;;;;;;3.13;2.07;;;22.20;1.00;;;;;;5009460;28;20343;-48
2021/08/11 10:51:45;;;;;;;5.10;2.60;;;22.20;1.00;;;;;;5009510;28;20638;-49
2021/08/11 10:54:13;;;;;;;3.10;1.97;;;22.40;99.90;;;;;;5010562;28;20245;-48
2021/08/11 10:56:51;;;;;;;3.17;2.10;;;22.30;99.90;;;;;;5009693;28;20292;-49
2021/08/11 10:59:33;;;;;;;2.90;1.80;;;22.40;1.00;;;;;;5009253;28;20303;-48
2021/08/11 11:02:00;;;;;;;3.33;1.90;;;22.50;1.00;;;;;;5008401;28;20240;-48
2021/08/11 11:04:40;;;;;;;2.73;1.93;;;22.60;1.00;;;;;;5008492;28;20201;-49
2021/08/11 11:07:10;;;;;;;3.07;1.80;;;22.70;1.00;;;;;;5009593;28;20247;-48
2021/08/11 11:09:39;;;;;;;2.83;1.70;;;22.70;86.10;;;;;;5009009;28;20794;-48
2021/08/11 11:12:18;;;;;;;2.50;1.80;;;22.90;1.00;;;;;;5009491;28;20247;-48
2021/08/11 11:14:47;;;;;;;3.17;2.30;;;23.00;99.90;;;;;;5009057;28;20650;-48
2021/08/11 11:17:15;;;;;;;2.83;2.20;;;23.30;1.00;;;;;;5009074;28;20248;-48
2021/08/11 11:20:08;;;;;;;2.93;2.30;;;23.30;1.00;;;;;;5008939;28;20271;-49
2021/08/11 11:22:35;;;;;;;3.87;2.13;;;23.40;1.00;;;;;;5009469;28;20208;-49
2021/08/11 11:25:05;;;;;;;3.23;2.40;;;23.40;1.00;;;;;;5009352;28;20304;-48
2021/08/11 11:27:38;;;;;;;2.50;2.10;;;23.70;1.00;;;;;;5008495;28;20252;-49
2021/08/11 11:30:09;;;;;;;5.37;2.53;;;23.60;1.00;;;;;;5008483;28;20710;-48
2021/08/11 11:32:39;;;;;;;3.33;1.97;;;23.60;1.00;;;;;;5008620;28;20724;-49
2021/08/11 11:35:18;;;;;;;4.17;1.80;;;23.70;1.00;;;;;;5009408;28;20694;-49
2021/08/11 11:38:04;;;;;;;3.87;2.80;;;23.50;99.90;;;;;;5008640;28;20210;-49
2021/08/11 11:40:31;;;;;;;3.60;2.03;;;23.70;1.00;;;;;;5007838;28;20332;-48
2021/08/11 11:43:37;;;;;;;4.77;2.33;;;23.30;1.00;;;;;;5008592;28;20703;-49
2021/08/11 11:46:03;;;;;;;3.50;2.13;;;23.20;1.00;;;;;;4974449;28;20198;-49
2021/08/11 11:48:30;;;;;;;3.67;2.27;;;23.80;1.00;;;;;;4974452;28;20215;-49
2021/08/11 11:51:04;;;;;;;3.40;2.27;;;23.70;1.00;;;;;;4974061;28;20250;-49
2021/08/11 11:53:35;;;;;;;2.97;2.17;;;24.20;99.90;;;;;;4974319;28;20292;-49
2021/08/11 11:56:13;;;;;;;2.83;1.83;;;24.00;61.80;;;;;;4974131;28;20290;-49
2021/08/11 11:58:47;;;;;;;3.90;2.37;;;24.40;1.00;;;;;;4974195;28;20297;-49
2021/08/11 12:01:16;;;;;;;2.20;1.93;;;25.20;1.00;;;;;;4973462;28;20627;-49
2021/08/11 12:03:50;;;;;;;2.50;1.97;;;25.10;1.00;;;;;;4974078;28;20211;-49
2021/08/11 12:06:41;;;;;;;2.83;1.83;;;24.80;1.00;;;;;;4974231;28;20215;-49
2021/08/11 12:09:08;;;;;;;3.67;2.17;;;25.00;1.00;;;;;;4974256;28;20283;-49
2021/08/11 12:11:35;;;;;;;3.57;1.93;;;25.00;1.00;;;;;;4974794;28;20670;-49
2021/08/11 12:14:05;;;;;;;2.27;1.67;;;25.30;1.00;;;;;;4974055;28;20295;-49
2021/08/11 12:16:37;;;;;;;3.37;1.90;;;25.10;1.00;;;;;;4985463;28;20219;-49
2021/08/11 12:19:16;;;;;;;6.73;2.23;;;25.20;1.00;;;;;;5007240;28;20212;-49
2021/08/11 12:21:45;;;;;;;2.13;1.93;;;25.30;1.00;;;;;;5007680;28;20799;-49
2021/08/11 12:24:11;;;;;;;2.87;2.20;;;25.10;1.00;;;;;;5007576;28;20209;-49
2021/08/11 12:26:39;;;;;;;2.80;1.90;;;24.80;1.00;;;;;;5022715;28;20262;-49
2021/08/11 12:29:20;;;;;;;2.10;1.77;;;25.00;25.60;;;;;;5007592;28;20258;-49
2021/08/11 12:31:49;;;;;;;2.80;1.80;;;24.60;99.90;;;;;;5007638;28;20262;-49
2021/08/11 12:34:16;;;;;;;2.23;1.80;;;25.20;99.90;;;;;;5006604;28;20209;-49
2021/08/11 12:36:45;;;;;;;2.53;2.07;;;25.20;1.00;;;;;;5007897;28;20212;-50
2021/08/11 12:39:15;;;;;;;3.77;1.80;;;25.20;1.00;;;;;;5006937;28;20604;-49
2021/08/11 12:42:06;;;;;;;2.83;2.00;;;25.20;99.90;;;;;;5007980;28;20211;-48
2021/08/11 12:44:33;;;;;;;2.63;2.07;;;25.70;1.00;;;;;;5006943;28;20624;-48
2021/08/11 12:47:02;;;;;;;4.97;2.10;;;26.60;99.90;;;;;;5007222;28;20640;-49
2021/08/11 12:49:29;;;;;;;3.93;1.93;;;25.80;1.00;;;;;;5007044;28;20211;-49
2021/08/11 12:52:18;;;;;;;3.17;1.97;;;24.70;1.00;;;;;;5007426;28;20210;-50
2021/08/11 12:54:54;;;;;;;3.57;1.87;;;25.20;1.00;;;;;;5007294;28;20208;-49
2021/08/11 12:57:22;;;;;;;4.03;2.40;;;25.60;1.00;;;;;;5007824;28;20643;-50
2021/08/11 12:59:53;;;;;;;2.53;2.00;;;25.10;1.00;;;;;;5007623;28;20306;-49